Time;durP1;ratioP1;P1;durP2;ratioP2;P2;SDS_P1;SDS_P2;PMS_P1;PMS_P2;Temp;Humidity;BMP_temperature;BMP_pressure;BME280_temperature;BME280_humidity;BME280_pressure;Samples;Min_cycle;Max_cycle;Signal;HPM_P1;HPM_P2
2024/03/29 00:02:24;;;;;;;2.17;1.40;;;8.40;48.50;;;10.09;40.44;95927.28;5032508;28;20394;-38
2024/03/29 00:04:50;;;;;;;2.27;1.30;;;8.40;48.60;;;10.05;40.20;95911.72;5033123;28;20409;-38
2024/03/29 00:07:17;;;;;;;2.23;1.40;;;8.40;48.50;;;10.07;40.55;95906.22;5032627;28;20501;-37
2024/03/29 00:09:44;;;;;;;5.40;3.20;;;8.50;48.30;;;10.07;40.47;95913.38;5016559;28;20075;-38
2024/03/29 00:12:10;;;;;;;4.47;2.73;;;8.50;48.70;;;10.10;40.70;95908.47;5032655;28;20393;-38
2024/03/29 00:14:37;;;;;;;16.87;8.17;;;8.50;49.70;;;10.06;40.63;95899.22;5033205;28;20531;-38
2024/03/29 00:17:04;;;;;;;16.20;7.83;;;8.50;48.60;;;10.05;40.82;95897.59;5033112;28;20527;-38
2024/03/29 00:19:32;;;;;;;4.50;2.70;;;8.50;49.10;;;10.03;40.56;95883.69;5033120;28;20052;-38
2024/03/29 00:21:58;;;;;;;6.33;2.90;;;8.50;49.20;;;10.01;40.96;95881.25;5032672;28;20045;-37
2024/03/29 00:24:25;;;;;;;9.90;4.20;;;8.50;49.30;;;10.04;40.91;95883.50;5032943;28;20045;-38
2024/03/29 00:26:51;;;;;;;13.70;6.67;;;8.50;49.10;;;10.03;41.19;95867.75;5032938;28;20056;-37
2024/03/29 00:29:18;;;;;;;11.03;5.80;;;8.50;49.70;;;10.05;41.12;95857.72;5032152;28;20049;-37
2024/03/29 00:31:45;;;;;;;3.70;2.13;;;8.50;49.60;;;10.02;41.16;95843.00;5032412;28;20416;-37
2024/03/29 00:34:11;;;;;;;5.63;2.80;;;8.50;49.50;;;9.97;41.06;95842.78;5032852;28;20049;-38
2024/03/29 00:36:38;;;;;;;13.67;6.03;;;8.50;49.50;;;9.97;41.07;95841.97;5032539;28;20056;-38
2024/03/29 00:39:05;;;;;;;6.87;2.20;;;8.50;49.80;;;10.00;41.23;95831.75;5032789;28;20041;-38
2024/03/29 00:41:32;;;;;;;3.73;1.97;;;8.60;49.80;;;10.02;41.49;95824.41;5031711;28;20044;-37
2024/03/29 00:43:58;;;;;;;5.77;2.67;;;8.60;50.40;;;10.05;41.75;95829.28;5032078;28;20041;-37
2024/03/29 00:46:25;;;;;;;4.33;2.23;;;8.60;50.10;;;10.09;41.46;95831.56;5015461;28;20048;-37
2024/03/29 00:48:52;;;;;;;3.33;1.53;;;8.60;50.30;;;10.11;41.30;95834.84;5032725;28;20044;-37
2024/03/29 00:51:18;;;;;;;8.27;3.23;;;8.60;50.00;;;10.12;41.79;95818.69;5032450;28;20468;-38
2024/03/29 00:53:45;;;;;;;3.50;1.83;;;8.60;50.40;;;10.13;41.67;95803.53;5032356;28;20045;-38
2024/03/29 00:56:15;;;;;;;6.93;2.83;;;8.70;50.80;;;10.18;41.50;95807.22;5032526;28;20041;-38
2024/03/29 00:58:41;;;;;;;10.93;5.47;;;8.70;50.80;;;10.22;41.61;95805.00;5032482;28;20041;-38
2024/03/29 01:01:08;;;;;;;4.97;2.53;;;8.70;50.60;;;10.26;41.92;95816.84;5032496;28;20065;-38
2024/03/29 01:03:35;;;;;;;6.30;2.30;;;8.70;50.80;;;10.30;41.66;95818.13;5031857;28;20037;-38
2024/03/29 01:06:01;;;;;;;7.33;2.93;;;8.80;50.90;;;10.32;41.70;95825.91;5031949;28;20045;-38
2024/03/29 01:08:28;;;;;;;5.60;2.53;;;8.80;50.40;;;10.34;41.89;95814.00;5032190;28;20033;-38
2024/03/29 01:10:54;;;;;;;5.83;3.07;;;8.80;50.60;;;10.40;41.74;95831.81;5031581;28;20519;-38
2024/03/29 01:13:21;;;;;;;10.73;5.20;;;8.80;50.90;;;10.41;41.81;95812.19;5031663;28;20048;-38
2024/03/29 01:15:48;;;;;;;2.57;1.43;;;8.90;50.70;;;10.42;41.91;95805.81;5015874;28;20046;-38
2024/03/29 01:18:15;;;;;;;5.33;2.17;;;8.90;50.80;;;10.44;41.85;95806.44;5031427;28;20500;-37
2024/03/29 01:20:41;;;;;;;5.63;3.43;;;8.90;50.90;;;10.44;41.46;95806.44;5031607;28;20045;-37
2024/03/29 01:23:08;;;;;;;2.40;1.50;;;8.90;50.60;;;10.40;41.41;95809.72;5031012;28;20038;-37
2024/03/29 01:25:35;;;;;;;1.90;1.20;;;8.90;50.50;;;10.41;42.04;95804.22;5030802;28;20041;-37
2024/03/29 01:28:02;;;;;;;4.37;1.70;;;8.90;51.20;;;10.44;42.08;95801.13;5030480;28;20053;-38
2024/03/29 01:30:29;;;;;;;1.93;1.17;;;8.80;51.10;;;10.43;41.96;95804.00;5015424;28;20508;-38
2024/03/29 01:32:56;;;;;;;3.67;1.20;;;8.90;51.10;;;10.44;42.19;95790.47;5031295;28;20041;-38
2024/03/29 01:35:22;;;;;;;2.97;1.33;;;8.90;51.10;;;10.44;41.87;95781.69;5031864;28;20049;-38
2024/03/29 01:37:49;;;;;;;6.53;2.60;;;8.80;51.20;;;10.47;41.90;95780.44;5031735;28;20049;-37
2024/03/29 01:40:16;;;;;;;3.37;1.93;;;8.80;51.60;;;10.48;41.83;95774.13;5031642;28;20061;-37
2024/03/29 01:42:42;;;;;;;4.43;2.60;;;8.80;51.50;;;10.47;41.51;95769.81;5031224;28;20029;-37
2024/03/29 01:45:09;;;;;;;11.47;4.40;;;8.90;51.00;;;10.46;42.07;95761.00;5031590;28;20085;-37
2024/03/29 01:47:36;;;;;;;4.43;1.80;;;8.90;50.70;;;10.44;41.57;95769.19;5031263;28;20041;-38
2024/03/29 01:50:04;;;;;;;4.30;2.73;;;8.90;50.70;;;10.43;41.56;95778.22;5031390;28;20049;-38
2024/03/29 01:52:31;;;;;;;11.87;4.63;;;8.90;50.40;;;10.43;41.81;95783.53;5030822;28;20045;-37
2024/03/29 01:54:58;;;;;;;9.60;5.37;;;9.00;50.60;;;10.48;41.94;95777.59;5031337;28;20045;-37
2024/03/29 01:57:25;;;;;;;12.03;6.03;;;9.00;51.00;;;10.47;41.61;95780.44;5030766;28;20044;-37
2024/03/29 01:59:52;;;;;;;11.37;4.80;;;9.00;50.80;;;10.46;41.98;95776.97;5031279;28;20056;-37
2024/03/29 02:02:19;;;;;;;10.37;4.73;;;9.00;50.60;;;10.48;41.71;95782.09;5030666;28;20038;-37
2024/03/29 02:04:46;;;;;;;7.47;3.23;;;9.00;50.70;;;10.46;41.86;95782.28;5014796;28;20049;-38
2024/03/29 02:07:13;;;;;;;8.37;4.07;;;9.00;50.90;;;10.47;42.08;95777.78;5014777;28;20034;-37
2024/03/29 02:09:40;;;;;;;5.13;2.43;;;9.00;50.60;;;10.49;41.97;95776.56;5031030;28;20042;-38
2024/03/29 02:12:07;;;;;;;12.10;7.03;;;9.00;50.80;;;10.53;41.59;95795.63;5030949;28;20409;-37
2024/03/29 02:14:34;;;;;;;6.07;3.27;;;9.00;50.70;;;10.55;41.49;95793.56;5030764;28;20053;-37
2024/03/29 02:17:00;;;;;;;11.30;7.07;;;9.00;50.30;;;10.54;41.80;95794.56;5031067;28;20543;-38
2024/03/29 02:19:27;;;;;;;5.07;2.97;;;9.00;50.30;;;10.56;41.92;95788.00;5030725;28;20042;-38
2024/03/29 02:21:59;;;;;;;9.53;7.33;;;9.10;50.50;;;10.60;41.45;95775.13;5029838;28;20044;-38
2024/03/29 02:24:26;;;;;;;4.30;2.93;;;9.10;50.50;;;10.61;41.65;95766.13;5030583;28;20485;-38
2024/03/29 02:26:56;;;;;;;3.43;2.00;;;9.00;50.70;;;10.64;41.92;95773.66;5014613;28;20041;-38
2024/03/29 02:29:24;;;;;;;3.50;1.40;;;9.00;51.30;;;10.66;42.13;95774.28;5029718;28;20037;-38
2024/03/29 02:31:50;;;;;;;1.73;1.13;;;9.00;51.00;;;10.68;41.94;95779.41;5030227;28;20030;-38
2024/03/29 02:34:18;;;;;;;1.63;1.00;;;9.00;51.20;;;10.69;42.09;95797.81;5030644;28;20037;-38
2024/03/29 02:36:45;;;;;;;1.10;0.83;;;9.00;51.30;;;10.68;41.58;95784.72;5022643;28;20057;-39
2024/03/29 02:39:12;;;;;;;2.53;1.20;;;9.00;51.40;;;10.70;41.83;95769.38;5030439;28;20033;-38
2024/03/29 02:41:38;;;;;;;1.20;0.83;;;9.00;51.20;;;10.70;42.38;95774.69;5030156;28;20092;-38
2024/03/29 02:44:05;;;;;;;2.03;0.90;;;9.00;51.90;;;10.72;42.25;95780.63;5030250;28;20033;-37
2024/03/29 02:46:32;;;;;;;1.53;1.10;;;9.00;51.60;;;10.71;42.23;95773.69;5030427;28;20398;-37
2024/03/29 02:48:59;;;;;;;1.10;1.00;;;8.90;51.90;;;10.70;41.87;95780.84;5030157;28;20036;-37
2024/03/29 02:51:25;;;;;;;1.50;1.00;;;8.90;52.10;;;10.71;42.14;95779.00;5030007;28;20038;-38
2024/03/29 02:53:52;;;;;;;1.47;1.17;;;8.90;52.40;;;10.69;42.31;95784.53;5030186;28;20420;-38
2024/03/29 02:56:21;;;;;;;1.47;1.27;;;8.90;52.50;;;10.69;42.35;95791.69;5029591;28;20048;-37
2024/03/29 02:58:48;;;;;;;1.70;0.87;;;8.90;52.70;;;10.69;42.38;95794.34;5021808;28;20041;-37
2024/03/29 03:01:15;;;;;;;2.00;1.10;;;8.80;52.40;;;10.66;42.00;95789.44;5029940;28;20049;-37
2024/03/29 03:03:41;;;;;;;1.67;1.30;;;8.80;52.60;;;10.65;41.99;95783.31;5029283;28;20041;-37
2024/03/29 03:06:08;;;;;;;2.47;1.63;;;8.80;52.70;;;10.66;41.86;95787.59;5029262;28;20046;-38
2024/03/29 03:11:20;;;;;;;1.53;1.43;;;8.80;51.70;;;10.65;41.95;95780.66;5015153;28;20037;-37
2024/03/29 03:13:46;;;;;;;1.63;0.90;;;8.90;51.10;;;10.66;41.82;95787.59;5029460;28;20041;-38
2024/03/29 03:16:13;;;;;;;1.43;1.33;;;8.90;51.90;;;10.67;41.73;95804.41;5029473;28;20037;-38
2024/03/29 03:18:40;;;;;;;2.63;0.83;;;8.90;51.50;;;10.67;41.59;95810.53;5029085;28;20489;-38
2024/03/29 03:21:07;;;;;;;2.63;1.10;;;8.90;51.10;;;10.68;42.00;95814.81;5029287;28;20053;-38
2024/03/29 03:23:33;;;;;;;0.93;0.87;;;8.90;51.60;;;10.70;41.45;95814.59;5028690;28;20054;-38
2024/03/29 03:26:06;;;;;;;1.73;1.00;;;8.90;51.00;;;10.71;41.62;95822.41;5029154;28;20116;-38
2024/03/29 03:28:32;;;;;;;1.23;0.77;;;8.90;50.40;;;10.70;41.78;95827.91;5029253;28;20493;-38
2024/03/29 03:30:59;;;;;;;2.00;0.80;;;9.00;50.40;;;10.70;41.40;95844.72;5028629;28;20413;-38
2024/03/29 03:33:26;;;;;;;1.03;0.90;;;9.00;49.90;;;10.69;41.21;95866.22;5028856;28;20041;-38
2024/03/29 03:35:53;;;;;;;1.50;0.80;;;9.10;49.60;;;10.65;41.32;95828.53;5016551;28;20044;-38
2024/03/29 03:38:19;;;;;;;1.53;1.00;;;9.00;50.10;;;10.66;41.32;95855.97;5033193;28;20044;-38
2024/03/29 03:40:46;;;;;;;2.57;1.00;;;9.10;50.10;;;10.62;41.73;95880.34;5032988;28;20049;-38
2024/03/29 03:43:12;;;;;;;1.20;1.00;;;9.10;50.20;;;10.62;42.03;95856.41;5032470;28;20041;-38
2024/03/29 03:45:41;;;;;;;1.17;0.67;;;9.10;51.40;;;10.65;42.06;95860.47;5016514;28;20381;-38
2024/03/29 03:48:10;;;;;;;2.27;1.47;;;9.10;51.00;;;10.60;41.80;95861.09;5016327;28;20041;-38
2024/03/29 03:50:38;;;;;;;2.47;1.10;;;9.10;49.90;;;10.59;41.68;95826.72;5032845;28;20041;-38
2024/03/29 03:53:04;;;;;;;1.40;0.90;;;9.10;51.20;;;10.58;42.37;95838.38;5032452;28;20037;-38
2024/03/29 03:55:34;;;;;;;3.30;1.00;;;9.10;51.70;;;10.56;42.67;95819.13;5032799;28;20056;-38
2024/03/29 03:58:01;;;;;;;2.47;1.70;;;9.10;52.10;;;10.54;42.35;95798.03;5016824;28;20048;-38
2024/03/29 04:00:28;;;;;;;2.57;1.80;;;9.10;51.80;;;10.54;42.68;95787.41;5032425;28;20068;-38
2024/03/29 04:02:56;;;;;;;1.80;1.20;;;9.10;52.00;;;10.57;42.66;95784.34;5032277;28;20092;-38
2024/03/29 04:05:24;;;;;;;1.20;0.80;;;9.00;52.80;;;10.57;42.91;95759.59;5032613;28;20497;-38
2024/03/29 04:07:51;;;;;;;0.80;0.80;;;9.00;53.00;;;10.60;42.56;95772.44;5016523;28;20076;-38
2024/03/29 04:10:18;;;;;;;2.00;0.90;;;9.00;52.70;;;10.60;43.05;95745.84;5015963;28;20049;-38
2024/03/29 04:12:44;;;;;;;1.10;1.00;;;9.10;52.80;;;10.61;42.87;95747.50;5032048;28;20041;-38
2024/03/29 04:15:11;;;;;;;1.23;0.97;;;9.10;52.10;;;10.62;42.79;95755.28;5032287;28;20033;-38
2024/03/29 04:17:38;;;;;;;1.77;1.20;;;9.10;51.70;;;10.60;42.29;95738.69;5031937;28;20050;-38
2024/03/29 04:20:05;;;;;;;1.93;0.90;;;9.10;51.70;;;10.59;42.26;95721.09;5016293;28;20052;-38
2024/03/29 04:22:32;;;;;;;1.80;0.80;;;9.10;51.60;;;10.61;42.74;95721.69;5031861;28;20042;-38
2024/03/29 04:24:58;;;;;;;2.53;0.90;;;9.10;52.00;;;10.65;42.28;95722.09;5032031;28;20045;-38
2024/03/29 04:27:25;;;;;;;0.77;0.77;;;9.10;51.40;;;10.68;42.34;95734.97;5030125;28;20520;-38
2024/03/29 04:29:53;;;;;;;0.77;0.77;;;9.20;51.20;;;10.71;42.19;95757.72;5031476;28;20046;-38
2024/03/29 04:32:20;;;;;;;0.80;0.70;;;9.20;50.50;;;10.71;42.71;95765.69;5031820;28;20394;-38
2024/03/29 04:34:51;;;;;;;1.00;1.00;;;9.20;51.70;;;10.72;42.53;95780.63;5031733;28;20053;-38
2024/03/29 04:37:18;;;;;;;1.27;1.13;;;9.20;52.00;;;10.72;42.51;95788.59;5032023;28;20041;-39
2024/03/29 04:39:46;;;;;;;1.73;1.17;;;9.20;52.40;;;10.72;42.94;95825.88;5031773;28;20053;-38
2024/03/29 04:42:14;;;;;;;2.50;1.00;;;9.20;52.50;;;10.72;43.21;95823.19;5031417;28;20048;-38
2024/03/29 04:44:42;;;;;;;0.67;0.67;;;9.20;52.80;;;10.73;42.74;95817.69;5031107;28;20044;-38
2024/03/29 04:47:08;;;;;;;1.30;0.80;;;9.10;53.00;;;10.72;42.79;95837.34;5031618;28;20049;-38
2024/03/29 04:49:36;;;;;;;1.00;0.90;;;9.10;52.00;;;10.70;42.77;95795.97;5031962;28;20048;-38
2024/03/29 04:52:07;;;;;;;1.07;0.80;;;9.10;52.10;;;10.71;42.49;95811.75;5031314;28;20037;-38
2024/03/29 04:54:35;;;;;;;1.03;0.70;;;9.20;51.70;;;10.68;42.06;95806.81;5031413;28;20045;-38
2024/03/29 04:57:03;;;;;;;1.03;0.80;;;9.20;50.90;;;10.70;41.72;95780.84;5031669;28;20041;-38
2024/03/29 04:59:29;;;;;;;0.60;0.60;;;9.20;50.10;;;10.71;42.33;95753.19;5014800;28;20045;-38
2024/03/29 05:01:58;;;;;;;1.07;0.60;;;9.20;50.70;;;10.76;42.36;95739.25;5031296;28;20048;-38
2024/03/29 05:04:25;;;;;;;1.77;0.93;;;9.20;50.80;;;10.81;42.20;95734.94;5031141;28;20037;-38
2024/03/29 05:06:58;;;;;;;2.30;1.07;;;9.30;51.20;;;10.83;42.26;95727.56;5031582;28;20492;-38
2024/03/29 05:09:26;;;;;;;1.35;0.90;;;9.30;50.70;;;10.84;41.90;95726.56;5031423;28;20065;-38
2024/03/29 05:11:52;;;;;;;1.63;0.80;;;9.30;50.60;;;10.84;41.78;95720.41;5031042;28;20097;-38
2024/03/29 05:14:22;;;;;;;0.90;0.80;;;9.30;50.40;;;10.81;41.87;95724.28;5014662;28;20500;-38
2024/03/29 05:16:49;;;;;;;2.03;0.90;;;9.30;50.30;;;10.79;41.87;95742.31;5031328;28;20041;-38
2024/03/29 05:19:16;;;;;;;1.23;0.80;;;9.30;50.20;;;10.77;41.95;95754.22;5014883;28;20049;-38
2024/03/29 05:21:43;;;;;;;2.00;0.70;;;9.30;50.70;;;10.76;41.92;95761.38;5030692;28;20050;-38
2024/03/29 05:24:10;;;;;;;1.23;1.10;;;9.30;50.90;;;10.77;42.04;95780.81;5030991;28;20029;-38
2024/03/29 05:26:37;;;;;;;1.10;1.00;;;9.20;51.20;;;10.77;42.15;95775.50;5030819;28;20109;-38
2024/03/29 05:29:04;;;;;;;1.20;1.10;;;9.20;51.40;;;10.75;42.53;95772.22;5031197;28;20508;-38
2024/03/29 05:31:30;;;;;;;1.03;0.83;;;9.20;52.00;;;10.78;42.57;95777.16;5029790;28;20049;-39
2024/03/29 05:33:57;;;;;;;1.07;0.83;;;9.20;51.80;;;10.79;42.14;95781.44;5030841;28;20049;-38
2024/03/29 05:36:24;;;;;;;1.53;1.10;;;9.20;51.80;;;10.81;42.33;95796.16;5030822;28;20439;-39
2024/03/29 05:38:50;;;;;;;1.87;1.00;;;9.20;52.10;;;10.87;41.84;95788.38;5030801;28;20046;-38
2024/03/29 05:41:17;;;;;;;1.10;0.80;;;9.20;51.40;;;10.90;41.90;95785.31;5030769;28;20045;-38
2024/03/29 05:43:44;;;;;;;1.00;0.90;;;9.20;51.70;;;10.92;42.08;95777.94;5030346;28;20053;-38
2024/03/29 05:46:10;;;;;;;1.53;0.90;;;9.20;51.90;;;10.91;41.98;95774.44;5031004;28;20033;-38
2024/03/29 05:48:38;;;;;;;2.10;1.13;;;9.30;51.60;;;10.92;42.17;95754.78;5030580;28;20037;-39
2024/03/29 05:51:05;;;;;;;1.60;1.00;;;9.20;52.00;;;10.90;42.28;95798.63;5030394;28;20078;-39
2024/03/29 05:53:32;;;;;;;0.90;0.70;;;9.30;51.10;;;10.90;42.42;95796.78;5030021;28;20044;-39
2024/03/29 05:55:58;;;;;;;1.00;0.70;;;9.30;51.40;;;10.94;41.96;95792.66;5030585;28;20416;-39
2024/03/29 05:58:25;;;;;;;1.93;1.10;;;9.30;50.80;;;10.85;41.44;95793.91;5030240;28;20041;-38
2024/03/29 06:00:52;;;;;;;1.53;1.00;;;9.30;50.40;;;10.84;42.01;95795.75;5013709;28;20046;-38
2024/03/29 06:03:18;;;;;;;1.47;1.00;;;9.30;50.70;;;10.89;41.99;95794.31;5029880;28;20041;-37
2024/03/29 06:05:46;;;;;;;3.40;0.80;;;9.40;50.50;;;10.87;42.18;95793.72;5030310;28;20041;-37
2024/03/29 06:08:12;;;;;;;1.07;0.80;;;9.40;50.40;;;10.89;41.72;95792.47;5030250;28;20416;-37
2024/03/29 06:10:39;;;;;;;4.07;1.33;;;9.40;50.50;;;10.90;42.03;95806.63;5029931;28;20050;-37
2024/03/29 06:13:17;;;;;;;1.37;1.13;;;9.40;50.70;;;10.90;41.66;95806.63;5029814;28;20307;-37
2024/03/29 06:18:29;;;;;;;2.10;1.07;;;9.40;50.10;;;10.87;42.06;95793.72;5030087;28;20053;-38
2024/03/29 06:20:55;;;;;;;1.40;1.00;;;9.40;49.90;;;10.91;41.79;95802.91;5029824;28;20045;-38
2024/03/29 06:23:22;;;;;;;2.03;0.97;;;9.40;49.90;;;10.91;42.03;95790.41;5029942;28;20045;-38
2024/03/29 06:25:49;;;;;;;1.13;1.00;;;9.40;49.80;;;10.95;41.61;95802.31;5029895;28;20397;-38
2024/03/29 06:28:16;;;;;;;2.43;1.00;;;9.50;49.80;;;11.02;41.40;95819.06;5029971;28;20045;-37
2024/03/29 06:30:43;;;;;;;1.97;1.23;;;9.50;49.30;;;11.08;41.27;95797.97;5029033;28;20420;-38
2024/03/29 06:33:10;;;;;;;1.50;1.10;;;9.60;49.50;;;11.13;41.36;95817.63;5029401;28;20042;-37
2024/03/29 06:35:36;;;;;;;1.13;0.83;;;9.70;49.30;;;11.16;40.70;95821.69;5029595;28;20285;-37
2024/03/29 06:38:03;;;;;;;1.30;0.90;;;9.70;48.70;;;11.19;41.12;95805.31;5029772;28;20049;-38
2024/03/29 06:40:30;;;;;;;1.60;0.93;;;9.70;48.50;;;11.23;41.06;95825.16;5029654;28;20054;-38
2024/03/29 06:42:58;;;;;;;1.27;0.80;;;9.80;48.20;;;11.23;40.95;95817.16;5029578;28;20050;-38
2024/03/29 06:45:25;;;;;;;1.90;1.00;;;9.80;48.40;;;11.30;41.04;95801.16;5029469;28;20512;-37
2024/03/29 06:47:52;;;;;;;0.93;0.87;;;9.80;48.50;;;11.35;41.12;95807.50;5013184;28;20029;-37
2024/03/29 06:50:19;;;;;;;1.70;1.10;;;9.90;48.60;;;11.40;40.76;95805.03;5029729;28;20029;-37
2024/03/29 06:52:45;;;;;;;1.43;0.90;;;9.90;49.00;;;11.45;41.02;95804.38;5028871;28;20056;-37
2024/03/29 06:55:13;;;;;;;1.00;0.90;;;9.90;49.10;;;11.52;40.91;95797.19;5029581;28;20033;-39
2024/03/29 06:57:40;;;;;;;1.33;1.10;;;10.00;49.00;;;11.58;40.80;95798.19;5013355;28;20060;-38
2024/03/29 07:00:08;;;;;;;1.67;1.20;;;10.00;48.80;;;11.63;40.59;95787.69;5029401;28;20041;-37
2024/03/29 07:02:35;;;;;;;1.53;1.20;;;10.10;48.80;;;11.65;40.59;95780.31;5029027;28;20045;-38
2024/03/29 07:05:07;;;;;;;2.20;1.10;;;10.10;48.60;;;11.69;40.77;95773.53;5029099;28;20030;-38
2024/03/29 07:07:34;;;;;;;2.47;1.63;;;10.20;48.90;;;11.70;40.68;95761.00;5029492;28;20413;-38
2024/03/29 07:10:01;;;;;;;1.47;1.07;;;10.20;48.80;;;11.71;41.03;95758.13;5028979;28;20042;-38
2024/03/29 07:12:27;;;;;;;1.03;0.90;;;10.30;48.90;;;11.73;41.12;95765.88;5029084;28;20053;-37
2024/03/29 07:14:54;;;;;;;1.23;1.00;;;10.30;49.10;;;11.74;40.76;95767.53;5029140;28;20037;-38
2024/03/29 07:17:21;;;;;;;1.60;1.00;;;10.30;48.70;;;11.72;40.67;95766.94;5029534;28;20037;-37
2024/03/29 07:19:48;;;;;;;1.53;1.30;;;10.30;48.50;;;11.70;40.29;95766.34;5029202;28;20501;-37
2024/03/29 07:22:14;;;;;;;1.43;1.03;;;10.30;47.70;;;11.68;40.36;95779.06;5012632;28;20034;-37
2024/03/29 07:24:41;;;;;;;1.33;1.00;;;10.30;47.80;;;11.70;40.40;95779.66;5029068;28;20402;-37
2024/03/29 07:27:08;;;;;;;1.03;0.90;;;10.30;47.90;;;11.71;40.63;95775.94;5029183;28;20044;-37
2024/03/29 07:29:34;;;;;;;1.57;1.10;;;10.20;47.80;;;11.69;40.13;95796.69;5025082;28;20038;-37
2024/03/29 07:32:01;;;;;;;1.90;0.97;;;10.20;47.30;;;11.65;40.20;95800.81;5028389;28;20046;-39
2024/03/29 07:34:28;;;;;;;3.23;1.00;;;10.20;47.00;;;11.61;39.87;95811.06;5029136;28;20037;-38
2024/03/29 07:36:54;;;;;;;1.27;0.97;;;10.20;47.60;;;11.59;40.58;95821.13;5025117;28;20523;-38
2024/03/29 07:39:22;;;;;;;1.47;1.00;;;10.20;48.00;;;11.59;41.09;95826.44;4992309;28;20437;-38
2024/03/29 07:41:49;;;;;;;1.97;0.97;;;10.20;50.40;;;11.63;42.16;95814.34;5026653;28;20046;-38
2024/03/29 07:44:15;;;;;;;1.30;1.10;;;10.10;52.40;;;11.62;42.98;95824.19;5028285;28;20037;-38
2024/03/29 07:46:42;;;;;;;3.43;1.30;;;10.10;54.20;;;11.61;43.02;95819.06;5027631;28;20041;-38
2024/03/29 07:49:09;;;;;;;2.70;1.40;;;10.00;54.10;;;11.55;43.90;95828.72;5028316;28;20048;-38
2024/03/29 07:51:35;;;;;;;1.47;1.03;;;9.90;56.90;;;11.52;44.04;95831.81;5010099;28;20068;-38
2024/03/29 07:54:02;;;;;;;3.47;1.23;;;9.80;57.00;;;11.49;44.74;95831.41;5028146;28;20044;-38
2024/03/29 07:56:29;;;;;;;3.13;1.80;;;9.80;58.80;;;11.48;44.81;95827.94;5012094;28;20049;-38
2024/03/29 07:58:55;;;;;;;3.43;1.80;;;9.70;59.00;;;11.45;45.00;95815.03;5027785;28;20052;-38
2024/03/29 08:01:23;;;;;;;2.23;1.90;;;9.60;59.20;;;11.44;45.61;95829.41;5027681;28;20044;-38
2024/03/29 08:03:53;;;;;;;3.47;1.80;;;9.60;60.80;;;11.42;46.06;95837.59;5027624;28;20049;-38
2024/03/29 08:06:20;;;;;;;4.43;2.60;;;9.50;63.00;;;11.38;46.74;95833.72;5028064;28;20330;-38
2024/03/29 08:08:47;;;;;;;2.87;2.10;;;9.30;64.30;;;11.36;46.59;95851.75;5027813;28;20049;-38
2024/03/29 08:11:14;;;;;;;2.73;1.70;;;9.30;65.40;;;11.30;46.46;95865.94;5027691;28;20060;-38
2024/03/29 08:13:41;;;;;;;4.73;1.47;;;9.30;64.80;;;11.24;46.99;95898.69;5027377;28;20504;-38
2024/03/29 08:16:08;;;;;;;2.10;1.40;;;9.30;64.30;;;11.09;47.56;95903.44;5027600;28;20045;-38
2024/03/29 08:18:35;;;;;;;2.43;1.90;;;9.20;66.00;;;10.84;48.33;95912.06;5027798;28;20049;-38
2024/03/29 08:21:02;;;;;;;2.70;1.67;;;9.10;67.30;;;10.73;48.81;95924.13;5029027;28;20534;-38
2024/03/29 08:23:30;;;;;;;2.63;1.20;;;9.00;66.90;;;10.70;49.46;95926.38;5014560;28;20054;-38
2024/03/29 08:25:57;;;;;;;2.50;1.40;;;9.00;68.80;;;10.70;49.87;95937.88;5031109;28;20049;-38
2024/03/29 08:28:24;;;;;;;1.43;1.10;;;9.00;70.60;;;10.71;50.35;95933.38;5031239;28;20034;-38
2024/03/29 08:30:59;;;;;;;2.17;1.10;;;9.00;71.80;;;10.75;50.27;95934.59;5030728;28;20046;-38
2024/03/29 08:33:26;;;;;;;1.53;1.43;;;9.10;73.10;;;10.76;50.90;95947.69;5030965;28;20040;-38
2024/03/29 08:35:53;;;;;;;2.47;1.20;;;9.10;73.80;;;10.78;51.95;95952.81;5030541;28;20060;-38
2024/03/29 08:38:19;;;;;;;1.37;1.13;;;9.10;74.70;;;10.78;51.63;95947.50;5031357;28;20042;-38
2024/03/29 08:40:48;;;;;;;1.17;1.07;;;9.20;73.60;;;10.79;52.36;95938.47;5030952;28;20197;-38
2024/03/29 08:43:18;;;;;;;3.87;1.70;;;9.30;73.50;;;10.83;52.32;95955.69;5013825;28;20049;-38
2024/03/29 08:45:45;;;;;;;2.70;1.47;;;9.40;74.80;;;10.88;53.42;95965.75;5030434;28;20418;-38
2024/03/29 08:48:12;;;;;;;2.20;1.00;;;9.40;77.30;;;10.92;53.15;95967.78;5030999;28;20041;-38
2024/03/29 08:50:38;;;;;;;2.33;1.33;;;9.40;77.20;;;10.98;53.39;95961.63;5030413;28;20050;-38
2024/03/29 08:53:06;;;;;;;1.63;1.27;;;9.50;77.00;;;11.01;53.63;95960.38;5030665;28;20420;-38
2024/03/29 08:55:34;;;;;;;1.97;1.23;;;9.50;79.90;;;11.07;53.96;95950.75;5030594;28;20049;-38
2024/03/29 08:58:02;;;;;;;2.60;1.13;;;9.60;78.10;;;11.12;54.25;95964.28;5022776;28;20045;-38
2024/03/29 09:00:30;;;;;;;1.80;1.40;;;9.70;78.60;;;11.15;54.94;95963.91;5030954;28;20311;-38
2024/03/29 09:02:57;;;;;;;1.70;1.47;;;9.70;78.60;;;11.15;55.26;95958.56;5030317;28;20515;-38
2024/03/29 09:05:26;;;;;;;1.77;1.67;;;9.80;78.70;;;11.18;55.01;95964.28;5030388;28;20038;-38
2024/03/29 09:07:53;;;;;;;4.83;1.83;;;9.80;78.70;;;11.22;55.63;95962.88;5030344;28;20041;-38
2024/03/29 09:10:20;;;;;;;1.20;1.10;;;9.80;80.10;;;11.28;55.59;95969.19;5030440;28;20041;-39
2024/03/29 09:12:46;;;;;;;1.93;0.90;;;9.90;79.20;;;11.32;55.94;95974.91;5030185;28;20053;-48
2024/03/29 09:15:13;;;;;;;1.33;1.00;;;9.90;80.20;;;11.36;55.83;95962.81;5030428;28;20048;-39
2024/03/29 09:17:40;;;;;;;1.97;1.40;;;10.00;79.50;;;11.38;56.25;95969.59;5014684;28;20315;-38
2024/03/29 09:20:08;;;;;;;1.70;1.17;;;10.10;79.70;;;11.39;56.44;95967.75;5031016;28;20053;-39
2024/03/29 09:22:35;;;;;;;2.97;1.20;;;10.10;80.00;;;11.46;56.21;95976.56;5030926;28;20053;-39
2024/03/29 09:25:03;;;;;;;2.20;1.53;;;10.20;81.00;;;11.50;56.91;95967.13;5023147;28;20037;-38
2024/03/29 09:27:30;;;;;;;1.10;1.00;;;10.20;81.30;;;11.55;56.71;95961.16;5031205;28;20053;-38
2024/03/29 09:29:56;;;;;;;1.30;1.20;;;10.20;81.50;;;11.59;57.06;95957.88;5031072;28;20049;-38
2024/03/29 09:32:23;;;;;;;3.00;1.53;;;10.30;82.60;;;11.63;56.94;95971.59;5030555;28;20040;-38
2024/03/29 09:34:50;;;;;;;2.20;1.30;;;10.30;81.30;;;11.68;57.02;95966.47;5030483;28;20485;-38
2024/03/29 09:37:17;;;;;;;1.47;1.20;;;10.30;82.90;;;11.73;57.90;95950.66;5031117;28;20305;-39
2024/03/29 09:39:44;;;;;;;0.70;0.70;;;10.40;83.50;;;11.78;57.43;95940.19;5013757;28;20046;-38
2024/03/29 09:42:16;;;;;;;2.07;1.30;;;10.40;82.60;;;11.86;57.57;95917.78;5030632;28;20048;-39
2024/03/29 09:44:45;;;;;;;1.20;1.10;;;10.50;82.50;;;11.94;57.77;95903.44;5013591;28;20429;-39
2024/03/29 09:47:17;;;;;;;2.50;1.20;;;10.60;82.20;;;11.99;57.51;95883.09;5030211;28;20037;-39
2024/03/29 09:49:47;;;;;;;2.30;1.23;;;10.60;82.30;;;12.06;57.63;95892.91;5014082;28;20038;-39
2024/03/29 09:52:14;;;;;;;1.43;1.33;;;10.70;82.30;;;12.10;57.75;95896.81;5029585;28;20037;-39
2024/03/29 09:54:41;;;;;;;3.03;1.87;;;10.80;82.20;;;12.15;57.41;95888.97;5030136;28;20524;-39
2024/03/29 09:57:09;;;;;;;3.67;1.43;;;10.90;82.10;;;12.21;57.75;95902.28;5030536;28;20052;-39
2024/03/29 09:59:37;;;;;;;1.87;1.37;;;10.90;82.00;;;12.24;57.89;95893.03;5014296;28;20045;-39
2024/03/29 10:02:17;;;;;;;3.17;1.60;;;10.90;82.30;;;12.24;58.01;95894.88;5022226;28;20037;-39
2024/03/29 10:04:46;;;;;;;3.03;1.17;;;10.90;83.50;;;12.21;58.16;95896.97;5030087;28;20049;-37
2024/03/29 10:07:15;;;;;;;2.10;1.50;;;10.80;84.10;;;12.20;58.29;95910.50;5013881;28;20037;-38
2024/03/29 10:09:44;;;;;;;3.47;1.30;;;10.80;83.90;;;12.19;58.63;95911.53;5014038;28;20045;-38
2024/03/29 10:12:11;;;;;;;2.40;1.30;;;10.80;84.30;;;12.24;58.31;95905.56;5013413;28;20125;-38
2024/03/29 10:14:49;;;;;;;1.60;1.20;;;10.90;84.20;;;12.31;58.44;95911.66;5030058;28;20056;-37
2024/03/29 10:17:19;;;;;;;1.67;1.13;;;10.90;84.50;;;12.36;58.78;95901.16;5023855;28;20523;-38
2024/03/29 10:19:47;;;;;;;2.07;1.50;;;10.90;85.60;;;12.43;58.93;95904.63;5029862;28;20045;-38
2024/03/29 10:22:13;;;;;;;2.50;1.90;;;11.00;86.00;;;12.47;58.66;95894.34;5029395;28;20386;-38
2024/03/29 10:24:40;;;;;;;3.10;2.17;;;11.00;85.80;;;12.50;58.89;95900.03;5029767;28;20041;-38
2024/03/29 10:27:07;;;;;;;2.20;2.00;;;11.10;85.50;;;12.48;58.72;95904.78;5029666;28;20492;-38
2024/03/29 10:29:34;;;;;;;2.60;2.10;;;11.10;85.50;;;12.53;58.88;95896.94;5029433;28;20042;-38
2024/03/29 10:32:02;;;;;;;3.50;2.17;;;11.10;84.60;;;12.60;58.67;95900.41;5029213;28;20130;-38